<?xml version="1.0" encoding="UTF-8" standalone="no" ?>
<gpx xmlns="http://www.topografix.com/GPX/1/1" xmlns:xsi="http://www.w3.org/2001/XMLSchema-instance" xsi:schemaLocation="http://www.topografix.com/GPX/1/1 http://www.topografix.com/GPX/1/1/gpx.xsd" version="1.1" creator="VisuGPX - https://www.visugpx.com">
  <metadata>
    <name>Reco-Lautrec-corrige</name>
  </metadata>
  <wpt lat="43.7168" lon="2.13065">
    <ele>309.8</ele>
    <name><![CDATA[1]]></name>
    <type><![CDATA[_]]></type>
  </wpt>
  <wpt lat="43.71098" lon="2.1259">
    <ele>341.7</ele>
    <name><![CDATA[2]]></name>
    <type><![CDATA[_]]></type>
  </wpt>
  <wpt lat="43.7135" lon="2.10643">
    <ele>293.1</ele>
    <name><![CDATA[3]]></name>
    <type><![CDATA[_]]></type>
  </wpt>
  <wpt lat="43.70599" lon="2.10174">
    <ele>301.5</ele>
    <name><![CDATA[4]]></name>
    <type><![CDATA[_]]></type>
  </wpt>
  <wpt lat="43.69802" lon="2.10465">
    <ele>248.8</ele>
    <name><![CDATA[5]]></name>
    <type><![CDATA[_]]></type>
  </wpt>
  <wpt lat="43.6963" lon="2.11287">
    <ele>257.7</ele>
    <name><![CDATA[6]]></name>
    <type><![CDATA[_]]></type>
  </wpt>
  <wpt lat="43.70275" lon="2.12735">
    <ele>252.5</ele>
    <name><![CDATA[7]]></name>
    <type><![CDATA[_]]></type>
  </wpt>
  <trk>
    <name><![CDATA[Reco-Lautrec-260223]]></name>
    <extensions>
      <line xmlns="http://www.topografix.com/GPX/gpx_style/0/2">
        <color>0000FF</color>
        <width>4</width>
      </line>
    </extensions>
    <trkseg>
      <trkpt lat="43.70769" lon="2.13795">
        <ele>297.3</ele>
        <time>2023-02-26T12:01:35+01:00</time>
      </trkpt>
      <trkpt lat="43.70777" lon="2.1379">
        <ele>298.1</ele>
        <time>2023-02-26T12:03:31+01:00</time>
      </trkpt>
      <trkpt lat="43.70787" lon="2.13784">
        <ele>299</ele>
        <time>2023-02-26T12:04:55+01:00</time>
      </trkpt>
      <trkpt lat="43.70808" lon="2.13781">
        <ele>300.4</ele>
        <time>2023-02-26T12:05:51+01:00</time>
      </trkpt>
      <trkpt lat="43.7083" lon="2.13774">
        <ele>301.3</ele>
        <time>2023-02-26T12:06:05+01:00</time>
      </trkpt>
      <trkpt lat="43.70842" lon="2.13759">
        <ele>305.6</ele>
        <time>2023-02-26T12:06:45+01:00</time>
      </trkpt>
      <trkpt lat="43.70864" lon="2.13746">
        <ele>308.2</ele>
        <time>2023-02-26T12:07:21+01:00</time>
      </trkpt>
      <trkpt lat="43.70886" lon="2.13737">
        <ele>313.5</ele>
        <time>2023-02-26T12:07:42+01:00</time>
      </trkpt>
      <trkpt lat="43.7091" lon="2.13733">
        <ele>316.6</ele>
        <time>2023-02-26T12:08:02+01:00</time>
      </trkpt>
      <trkpt lat="43.70934" lon="2.1373">
        <ele>319.6</ele>
        <time>2023-02-26T12:08:29+01:00</time>
      </trkpt>
      <trkpt lat="43.70956" lon="2.13729">
        <ele>321.7</ele>
      </trkpt>
      <trkpt lat="43.70966" lon="2.13728">
        <ele>322.5</ele>
      </trkpt>
      <trkpt lat="43.70972" lon="2.13725">
        <ele>323.5</ele>
        <time>2023-02-26T12:08:55+01:00</time>
      </trkpt>
      <trkpt lat="43.70982" lon="2.13719">
        <ele>326.7</ele>
        <time>2023-02-26T12:09:18+01:00</time>
      </trkpt>
      <trkpt lat="43.71006" lon="2.13702">
        <ele>332.9</ele>
        <time>2023-02-26T12:09:50+01:00</time>
      </trkpt>
      <trkpt lat="43.71023" lon="2.13692">
        <ele>334.5</ele>
        <time>2023-02-26T12:10:18+01:00</time>
      </trkpt>
      <trkpt lat="43.71041" lon="2.13673">
        <ele>333</ele>
        <time>2023-02-26T12:10:48+01:00</time>
      </trkpt>
      <trkpt lat="43.71062" lon="2.13658">
        <ele>332</ele>
        <time>2023-02-26T12:11:07+01:00</time>
      </trkpt>
      <trkpt lat="43.71082" lon="2.13641">
        <ele>332</ele>
        <time>2023-02-26T12:11:27+01:00</time>
      </trkpt>
      <trkpt lat="43.71092" lon="2.13629">
        <ele>332.1</ele>
      </trkpt>
      <trkpt lat="43.71091" lon="2.13616">
        <ele>331.4</ele>
        <time>2023-02-26T12:11:44+01:00</time>
      </trkpt>
      <trkpt lat="43.71113" lon="2.13593">
        <ele>336</ele>
        <time>2023-02-26T12:12:02+01:00</time>
      </trkpt>
      <trkpt lat="43.71123" lon="2.13564">
        <ele>334.3</ele>
        <time>2023-02-26T12:12:21+01:00</time>
      </trkpt>
      <trkpt lat="43.71133" lon="2.13537">
        <ele>334.8</ele>
        <time>2023-02-26T12:12:46+01:00</time>
      </trkpt>
      <trkpt lat="43.71139" lon="2.13514">
        <ele>334.6</ele>
      </trkpt>
      <trkpt lat="43.7115" lon="2.13507">
        <ele>335.5</ele>
      </trkpt>
      <trkpt lat="43.71156" lon="2.13498">
        <ele>335.8</ele>
        <time>2023-02-26T12:13:02+01:00</time>
      </trkpt>
      <trkpt lat="43.71165" lon="2.13488">
        <ele>336</ele>
        <time>2023-02-26T12:13:19+01:00</time>
      </trkpt>
      <trkpt lat="43.71184" lon="2.13466">
        <ele>335.9</ele>
        <time>2023-02-26T12:13:38+01:00</time>
      </trkpt>
      <trkpt lat="43.71208" lon="2.13452">
        <ele>336.2</ele>
        <time>2023-02-26T12:13:51+01:00</time>
      </trkpt>
      <trkpt lat="43.71228" lon="2.13442">
        <ele>335.8</ele>
        <time>2023-02-26T12:14:12+01:00</time>
      </trkpt>
      <trkpt lat="43.71247" lon="2.13431">
        <ele>334</ele>
        <time>2023-02-26T12:14:33+01:00</time>
      </trkpt>
      <trkpt lat="43.71269" lon="2.13427">
        <ele>334.5</ele>
        <time>2023-02-26T12:14:57+01:00</time>
      </trkpt>
      <trkpt lat="43.71291" lon="2.13402">
        <ele>332</ele>
        <time>2023-02-26T12:15:18+01:00</time>
      </trkpt>
      <trkpt lat="43.71311" lon="2.13378">
        <ele>331.1</ele>
        <time>2023-02-26T12:17:18+01:00</time>
      </trkpt>
      <trkpt lat="43.71329" lon="2.13354">
        <ele>329</ele>
        <time>2023-02-26T12:17:34+01:00</time>
      </trkpt>
      <trkpt lat="43.71344" lon="2.13332">
        <ele>327.2</ele>
        <time>2023-02-26T12:17:52+01:00</time>
      </trkpt>
      <trkpt lat="43.71362" lon="2.13309">
        <ele>325.9</ele>
        <time>2023-02-26T12:18:13+01:00</time>
      </trkpt>
      <trkpt lat="43.71378" lon="2.13288">
        <ele>324.1</ele>
      </trkpt>
      <trkpt lat="43.71381" lon="2.13285">
        <ele>323.9</ele>
        <time>2023-02-26T12:18:41+01:00</time>
      </trkpt>
      <trkpt lat="43.71389" lon="2.13275">
        <ele>323.1</ele>
        <time>2023-02-26T12:19:07+01:00</time>
      </trkpt>
      <trkpt lat="43.71417" lon="2.13254">
        <ele>321.9</ele>
        <time>2023-02-26T12:19:25+01:00</time>
      </trkpt>
      <trkpt lat="43.71439" lon="2.13243">
        <ele>319.8</ele>
        <time>2023-02-26T12:19:44+01:00</time>
      </trkpt>
      <trkpt lat="43.71461" lon="2.13233">
        <ele>318.4</ele>
      </trkpt>
      <trkpt lat="43.71466" lon="2.13231">
        <ele>318.1</ele>
        <time>2023-02-26T12:20:05+01:00</time>
      </trkpt>
      <trkpt lat="43.71487" lon="2.13221">
        <ele>315</ele>
        <time>2023-02-26T12:20:24+01:00</time>
      </trkpt>
      <trkpt lat="43.71508" lon="2.13207">
        <ele>314</ele>
        <time>2023-02-26T12:20:41+01:00</time>
      </trkpt>
      <trkpt lat="43.71529" lon="2.13191">
        <ele>313</ele>
        <time>2023-02-26T12:21:00+01:00</time>
      </trkpt>
      <trkpt lat="43.71547" lon="2.13169">
        <ele>312.6</ele>
        <time>2023-02-26T12:21:20+01:00</time>
      </trkpt>
      <trkpt lat="43.71569" lon="2.13145">
        <ele>311.6</ele>
        <time>2023-02-26T12:21:38+01:00</time>
      </trkpt>
      <trkpt lat="43.71584" lon="2.13134">
        <ele>310.8</ele>
        <time>2023-02-26T12:21:57+01:00</time>
      </trkpt>
      <trkpt lat="43.71611" lon="2.13125">
        <ele>310.5</ele>
        <time>2023-02-26T12:22:16+01:00</time>
      </trkpt>
      <trkpt lat="43.7163" lon="2.13113">
        <ele>310.7</ele>
        <time>2023-02-26T12:22:36+01:00</time>
      </trkpt>
      <trkpt lat="43.71649" lon="2.13092">
        <ele>310</ele>
        <time>2023-02-26T12:22:53+01:00</time>
      </trkpt>
      <trkpt lat="43.71679" lon="2.13063">
        <ele>309.7</ele>
        <time>2023-02-26T12:23:29+01:00</time>
      </trkpt>
      <trkpt lat="43.71674" lon="2.13049">
        <ele>308.8</ele>
        <time>2023-02-26T12:23:50+01:00</time>
      </trkpt>
      <trkpt lat="43.71671" lon="2.13045">
        <ele>308.4</ele>
        <time>2023-02-26T12:24:21+01:00</time>
      </trkpt>
      <trkpt lat="43.7167" lon="2.13041">
        <ele>308.1</ele>
      </trkpt>
      <trkpt lat="43.71668" lon="2.13037">
        <ele>307.7</ele>
        <time>2023-02-26T12:24:37+01:00</time>
      </trkpt>
      <trkpt lat="43.71667" lon="2.13037">
        <ele>307.6</ele>
      </trkpt>
      <trkpt lat="43.71662" lon="2.13027">
        <ele>307.1</ele>
        <time>2023-02-26T12:24:50+01:00</time>
      </trkpt>
      <trkpt lat="43.71658" lon="2.13021">
        <ele>307.1</ele>
      </trkpt>
      <trkpt lat="43.71655" lon="2.13016">
        <ele>307</ele>
        <time>2023-02-26T12:28:08+01:00</time>
      </trkpt>
      <trkpt lat="43.71652" lon="2.13012">
        <ele>307</ele>
        <time>2023-02-26T12:28:54+01:00</time>
      </trkpt>
      <trkpt lat="43.71639" lon="2.12996">
        <ele>307</ele>
        <time>2023-02-26T12:29:10+01:00</time>
      </trkpt>
      <trkpt lat="43.71618" lon="2.12975">
        <ele>308.5</ele>
        <time>2023-02-26T12:29:30+01:00</time>
      </trkpt>
      <trkpt lat="43.71609" lon="2.12965">
        <ele>309.7</ele>
        <time>2023-02-26T12:29:57+01:00</time>
      </trkpt>
      <trkpt lat="43.71609" lon="2.12955">
        <ele>310.4</ele>
      </trkpt>
      <trkpt lat="43.71602" lon="2.12953">
        <ele>310.8</ele>
        <time>2023-02-26T12:30:15+01:00</time>
      </trkpt>
      <trkpt lat="43.71585" lon="2.12943">
        <ele>312</ele>
      </trkpt>
      <trkpt lat="43.71577" lon="2.12939">
        <ele>312.4</ele>
      </trkpt>
      <trkpt lat="43.71564" lon="2.12936">
        <ele>312</ele>
        <time>2023-02-26T12:30:31+01:00</time>
      </trkpt>
      <trkpt lat="43.71553" lon="2.12935">
        <ele>313.1</ele>
      </trkpt>
      <trkpt lat="43.71547" lon="2.12941">
        <ele>313.3</ele>
      </trkpt>
      <trkpt lat="43.71541" lon="2.12938">
        <ele>313.5</ele>
        <time>2023-02-26T12:30:52+01:00</time>
      </trkpt>
      <trkpt lat="43.71527" lon="2.12927">
        <ele>314.1</ele>
        <time>2023-02-26T12:31:13+01:00</time>
      </trkpt>
      <trkpt lat="43.71502" lon="2.12895">
        <ele>315.8</ele>
      </trkpt>
      <trkpt lat="43.715" lon="2.12891">
        <ele>316</ele>
        <time>2023-02-26T12:31:30+01:00</time>
      </trkpt>
      <trkpt lat="43.71487" lon="2.12867">
        <ele>316.5</ele>
        <time>2023-02-26T12:31:51+01:00</time>
      </trkpt>
      <trkpt lat="43.71481" lon="2.12862">
        <ele>317</ele>
        <time>2023-02-26T12:32:08+01:00</time>
      </trkpt>
      <trkpt lat="43.71465" lon="2.12858">
        <ele>318.1</ele>
        <time>2023-02-26T12:32:27+01:00</time>
      </trkpt>
      <trkpt lat="43.71456" lon="2.12852">
        <ele>318.3</ele>
      </trkpt>
      <trkpt lat="43.7144" lon="2.12826">
        <ele>319.8</ele>
        <time>2023-02-26T12:32:45+01:00</time>
      </trkpt>
      <trkpt lat="43.71427" lon="2.12785">
        <ele>321.8</ele>
      </trkpt>
      <trkpt lat="43.71422" lon="2.12764">
        <ele>322.4</ele>
        <time>2023-02-26T12:33:08+01:00</time>
      </trkpt>
      <trkpt lat="43.71418" lon="2.12739">
        <ele>323.3</ele>
        <time>2023-02-26T12:33:28+01:00</time>
      </trkpt>
      <trkpt lat="43.71417" lon="2.1273">
        <ele>323.6</ele>
      </trkpt>
      <trkpt lat="43.71424" lon="2.127">
        <ele>323.7</ele>
        <time>2023-02-26T12:33:50+01:00</time>
      </trkpt>
      <trkpt lat="43.71426" lon="2.12683">
        <ele>324</ele>
      </trkpt>
      <trkpt lat="43.71426" lon="2.12662">
        <ele>324.2</ele>
      </trkpt>
      <trkpt lat="43.71425" lon="2.12647">
        <ele>324</ele>
        <time>2023-02-26T12:34:21+01:00</time>
      </trkpt>
      <trkpt lat="43.71421" lon="2.12634">
        <ele>324.5</ele>
        <time>2023-02-26T12:34:40+01:00</time>
      </trkpt>
      <trkpt lat="43.71414" lon="2.12626">
        <ele>325.9</ele>
        <time>2023-02-26T12:34:59+01:00</time>
      </trkpt>
      <trkpt lat="43.71398" lon="2.12612">
        <ele>328.6</ele>
      </trkpt>
      <trkpt lat="43.71391" lon="2.12608">
        <ele>329.9</ele>
        <time>2023-02-26T12:36:20+01:00</time>
      </trkpt>
      <trkpt lat="43.71387" lon="2.12605">
        <ele>330.7</ele>
        <time>2023-02-26T13:06:34+01:00</time>
      </trkpt>
      <trkpt lat="43.71371" lon="2.12593">
        <ele>332.9</ele>
        <time>2023-02-26T13:10:25+01:00</time>
      </trkpt>
      <trkpt lat="43.71363" lon="2.12582">
        <ele>333.8</ele>
      </trkpt>
      <trkpt lat="43.7136" lon="2.12579">
        <ele>333.9</ele>
      </trkpt>
      <trkpt lat="43.71343" lon="2.12577">
        <ele>334.9</ele>
        <time>2023-02-26T13:10:55+01:00</time>
      </trkpt>
      <trkpt lat="43.71324" lon="2.12563">
        <ele>335.8</ele>
        <time>2023-02-26T13:11:19+01:00</time>
      </trkpt>
      <trkpt lat="43.71306" lon="2.12542">
        <ele>335.9</ele>
        <time>2023-02-26T13:11:42+01:00</time>
      </trkpt>
      <trkpt lat="43.7129" lon="2.12528">
        <ele>336.3</ele>
        <time>2023-02-26T13:12:01+01:00</time>
      </trkpt>
      <trkpt lat="43.71275" lon="2.12529">
        <ele>337.8</ele>
        <time>2023-02-26T13:12:22+01:00</time>
      </trkpt>
      <trkpt lat="43.71241" lon="2.12568">
        <ele>339.3</ele>
        <time>2023-02-26T13:12:42+01:00</time>
      </trkpt>
      <trkpt lat="43.71224" lon="2.12589">
        <ele>341</ele>
        <time>2023-02-26T13:13:04+01:00</time>
      </trkpt>
      <trkpt lat="43.71199" lon="2.12599">
        <ele>339.4</ele>
        <time>2023-02-26T13:13:25+01:00</time>
      </trkpt>
      <trkpt lat="43.71176" lon="2.12603">
        <ele>340.2</ele>
        <time>2023-02-26T13:13:48+01:00</time>
      </trkpt>
      <trkpt lat="43.71155" lon="2.12594">
        <ele>340.7</ele>
      </trkpt>
      <trkpt lat="43.71147" lon="2.12587">
        <ele>341.2</ele>
        <time>2023-02-26T13:15:08+01:00</time>
      </trkpt>
      <trkpt lat="43.71144" lon="2.12584">
        <ele>341.5</ele>
      </trkpt>
      <trkpt lat="43.71126" lon="2.12575">
        <ele>340</ele>
        <time>2023-02-26T13:15:26+01:00</time>
      </trkpt>
      <trkpt lat="43.71108" lon="2.12575">
        <ele>340.5</ele>
      </trkpt>
      <trkpt lat="43.71111" lon="2.12543">
        <ele>338.6</ele>
        <time>2023-02-26T13:15:48+01:00</time>
      </trkpt>
      <trkpt lat="43.71116" lon="2.12512">
        <ele>337.1</ele>
        <time>2023-02-26T13:16:07+01:00</time>
      </trkpt>
      <trkpt lat="43.71124" lon="2.12484">
        <ele>335</ele>
        <time>2023-02-26T13:16:30+01:00</time>
      </trkpt>
      <trkpt lat="43.71132" lon="2.12448">
        <ele>334.5</ele>
        <time>2023-02-26T13:16:50+01:00</time>
      </trkpt>
      <trkpt lat="43.71139" lon="2.12421">
        <ele>334</ele>
        <time>2023-02-26T13:17:09+01:00</time>
      </trkpt>
      <trkpt lat="43.71145" lon="2.12393">
        <ele>332</ele>
        <time>2023-02-26T13:17:24+01:00</time>
      </trkpt>
      <trkpt lat="43.71154" lon="2.12361">
        <ele>329</ele>
        <time>2023-02-26T13:17:40+01:00</time>
      </trkpt>
      <trkpt lat="43.7116" lon="2.12331">
        <ele>327.4</ele>
        <time>2023-02-26T13:17:59+01:00</time>
      </trkpt>
      <trkpt lat="43.71166" lon="2.12297">
        <ele>328.9</ele>
        <time>2023-02-26T13:18:18+01:00</time>
      </trkpt>
      <trkpt lat="43.71175" lon="2.12264">
        <ele>328</ele>
        <time>2023-02-26T13:18:33+01:00</time>
      </trkpt>
      <trkpt lat="43.71181" lon="2.12239">
        <ele>327</ele>
        <time>2023-02-26T13:18:49+01:00</time>
      </trkpt>
      <trkpt lat="43.71188" lon="2.12207">
        <ele>324</ele>
        <time>2023-02-26T13:19:11+01:00</time>
      </trkpt>
      <trkpt lat="43.71195" lon="2.12176">
        <ele>326.3</ele>
        <time>2023-02-26T13:19:27+01:00</time>
      </trkpt>
      <trkpt lat="43.71201" lon="2.12149">
        <ele>324.8</ele>
      </trkpt>
      <trkpt lat="43.71202" lon="2.12145">
        <ele>324.6</ele>
        <time>2023-02-26T13:19:44+01:00</time>
      </trkpt>
      <trkpt lat="43.71209" lon="2.1211">
        <ele>324</ele>
        <time>2023-02-26T13:20:03+01:00</time>
      </trkpt>
      <trkpt lat="43.71216" lon="2.12081">
        <ele>324.8</ele>
        <time>2023-02-26T13:20:17+01:00</time>
      </trkpt>
      <trkpt lat="43.71222" lon="2.12049">
        <ele>324</ele>
        <time>2023-02-26T13:20:34+01:00</time>
      </trkpt>
      <trkpt lat="43.71229" lon="2.12018">
        <ele>325.1</ele>
        <time>2023-02-26T13:20:51+01:00</time>
      </trkpt>
      <trkpt lat="43.71237" lon="2.11986">
        <ele>325</ele>
        <time>2023-02-26T13:21:10+01:00</time>
      </trkpt>
      <trkpt lat="43.71247" lon="2.11957">
        <ele>326</ele>
        <time>2023-02-26T13:21:28+01:00</time>
      </trkpt>
      <trkpt lat="43.71257" lon="2.11925">
        <ele>325</ele>
        <time>2023-02-26T13:21:44+01:00</time>
      </trkpt>
      <trkpt lat="43.71268" lon="2.11896">
        <ele>324</ele>
        <time>2023-02-26T13:22:02+01:00</time>
      </trkpt>
      <trkpt lat="43.7128" lon="2.11868">
        <ele>324</ele>
        <time>2023-02-26T13:22:19+01:00</time>
      </trkpt>
      <trkpt lat="43.71292" lon="2.11839">
        <ele>323</ele>
        <time>2023-02-26T13:22:34+01:00</time>
      </trkpt>
      <trkpt lat="43.71303" lon="2.11811">
        <ele>322.4</ele>
        <time>2023-02-26T13:22:50+01:00</time>
      </trkpt>
      <trkpt lat="43.71315" lon="2.11781">
        <ele>324</ele>
        <time>2023-02-26T13:23:11+01:00</time>
      </trkpt>
      <trkpt lat="43.71325" lon="2.11753">
        <ele>320</ele>
        <time>2023-02-26T13:23:27+01:00</time>
      </trkpt>
      <trkpt lat="43.71335" lon="2.11724">
        <ele>319.4</ele>
        <time>2023-02-26T13:23:47+01:00</time>
      </trkpt>
      <trkpt lat="43.71335" lon="2.11702">
        <ele>319.1</ele>
      </trkpt>
      <trkpt lat="43.71345" lon="2.11692">
        <ele>318.9</ele>
        <time>2023-02-26T13:24:04+01:00</time>
      </trkpt>
      <trkpt lat="43.7135" lon="2.11666">
        <ele>317.3</ele>
        <time>2023-02-26T13:24:42+01:00</time>
      </trkpt>
      <trkpt lat="43.71355" lon="2.11636">
        <ele>315.3</ele>
        <time>2023-02-26T13:25:01+01:00</time>
      </trkpt>
      <trkpt lat="43.71362" lon="2.11603">
        <ele>314.2</ele>
        <time>2023-02-26T13:25:18+01:00</time>
      </trkpt>
      <trkpt lat="43.71365" lon="2.11587">
        <ele>314.3</ele>
      </trkpt>
      <trkpt lat="43.71375" lon="2.11571">
        <ele>318</ele>
        <time>2023-02-26T13:25:37+01:00</time>
      </trkpt>
      <trkpt lat="43.71394" lon="2.11553">
        <ele>319</ele>
        <time>2023-02-26T13:25:59+01:00</time>
      </trkpt>
      <trkpt lat="43.7141" lon="2.1154">
        <ele>315.1</ele>
      </trkpt>
      <trkpt lat="43.71416" lon="2.11536">
        <ele>315.6</ele>
        <time>2023-02-26T13:28:23+01:00</time>
      </trkpt>
      <trkpt lat="43.71435" lon="2.11523">
        <ele>318</ele>
        <time>2023-02-26T13:28:45+01:00</time>
      </trkpt>
      <trkpt lat="43.71453" lon="2.11502">
        <ele>320.9</ele>
        <time>2023-02-26T13:29:07+01:00</time>
      </trkpt>
      <trkpt lat="43.71461" lon="2.11492">
        <ele>323.1</ele>
      </trkpt>
      <trkpt lat="43.71472" lon="2.11484">
        <ele>324.2</ele>
        <time>2023-02-26T13:29:30+01:00</time>
      </trkpt>
      <trkpt lat="43.71495" lon="2.11474">
        <ele>327.5</ele>
        <time>2023-02-26T13:29:55+01:00</time>
      </trkpt>
      <trkpt lat="43.71512" lon="2.11452">
        <ele>329.6</ele>
        <time>2023-02-26T13:30:21+01:00</time>
      </trkpt>
      <trkpt lat="43.71522" lon="2.11425">
        <ele>330.7</ele>
        <time>2023-02-26T13:30:43+01:00</time>
      </trkpt>
      <trkpt lat="43.71532" lon="2.11395">
        <ele>331.8</ele>
        <time>2023-02-26T13:31:04+01:00</time>
      </trkpt>
      <trkpt lat="43.71542" lon="2.11366">
        <ele>332.2</ele>
        <time>2023-02-26T13:31:25+01:00</time>
      </trkpt>
      <trkpt lat="43.71553" lon="2.11334">
        <ele>328</ele>
        <time>2023-02-26T13:31:46+01:00</time>
      </trkpt>
      <trkpt lat="43.71557" lon="2.11302">
        <ele>330.6</ele>
      </trkpt>
      <trkpt lat="43.71557" lon="2.11297">
        <ele>330.5</ele>
        <time>2023-02-26T13:32:04+01:00</time>
      </trkpt>
      <trkpt lat="43.71552" lon="2.11269">
        <ele>330.5</ele>
        <time>2023-02-26T13:32:23+01:00</time>
      </trkpt>
      <trkpt lat="43.71547" lon="2.11238">
        <ele>330.3</ele>
        <time>2023-02-26T13:32:43+01:00</time>
      </trkpt>
      <trkpt lat="43.71543" lon="2.11211">
        <ele>329.4</ele>
      </trkpt>
      <trkpt lat="43.71543" lon="2.11203">
        <ele>328.9</ele>
      </trkpt>
      <trkpt lat="43.71544" lon="2.11192">
        <ele>328.1</ele>
        <time>2023-02-26T13:33:04+01:00</time>
      </trkpt>
      <trkpt lat="43.7155" lon="2.11167">
        <ele>327.4</ele>
        <time>2023-02-26T13:33:21+01:00</time>
      </trkpt>
      <trkpt lat="43.71563" lon="2.11137">
        <ele>327.4</ele>
        <time>2023-02-26T13:33:40+01:00</time>
      </trkpt>
      <trkpt lat="43.71577" lon="2.11109">
        <ele>327.3</ele>
        <time>2023-02-26T13:33:58+01:00</time>
      </trkpt>
      <trkpt lat="43.71589" lon="2.11081">
        <ele>328.8</ele>
        <time>2023-02-26T13:34:17+01:00</time>
      </trkpt>
      <trkpt lat="43.71599" lon="2.11056">
        <ele>329.6</ele>
        <time>2023-02-26T13:34:36+01:00</time>
      </trkpt>
      <trkpt lat="43.7161" lon="2.11027">
        <ele>329.8</ele>
        <time>2023-02-26T13:34:56+01:00</time>
      </trkpt>
      <trkpt lat="43.71621" lon="2.10998">
        <ele>327.7</ele>
        <time>2023-02-26T13:35:16+01:00</time>
      </trkpt>
      <trkpt lat="43.71631" lon="2.10969">
        <ele>324.7</ele>
        <time>2023-02-26T13:35:35+01:00</time>
      </trkpt>
      <trkpt lat="43.71642" lon="2.10938">
        <ele>322.1</ele>
        <time>2023-02-26T13:35:54+01:00</time>
      </trkpt>
      <trkpt lat="43.71653" lon="2.1091">
        <ele>318.8</ele>
        <time>2023-02-26T13:36:11+01:00</time>
      </trkpt>
      <trkpt lat="43.71669" lon="2.10859">
        <ele>315.7</ele>
        <time>2023-02-26T13:36:46+01:00</time>
      </trkpt>
      <trkpt lat="43.71664" lon="2.10857">
        <ele>315.3</ele>
      </trkpt>
      <trkpt lat="43.7166" lon="2.10856">
        <ele>314.6</ele>
      </trkpt>
      <trkpt lat="43.71652" lon="2.10863">
        <ele>313.5</ele>
        <time>2023-02-26T13:37:12+01:00</time>
      </trkpt>
      <trkpt lat="43.71646" lon="2.10868">
        <ele>313.2</ele>
      </trkpt>
      <trkpt lat="43.71637" lon="2.10877">
        <ele>312.8</ele>
        <time>2023-02-26T13:37:31+01:00</time>
      </trkpt>
      <trkpt lat="43.71617" lon="2.1091">
        <ele>312.2</ele>
        <time>2023-02-26T13:37:46+01:00</time>
      </trkpt>
      <trkpt lat="43.71602" lon="2.10923">
        <ele>311.5</ele>
        <time>2023-02-26T13:38:04+01:00</time>
      </trkpt>
      <trkpt lat="43.71597" lon="2.10925">
        <ele>311</ele>
      </trkpt>
      <trkpt lat="43.71577" lon="2.10931">
        <ele>312</ele>
        <time>2023-02-26T13:38:23+01:00</time>
      </trkpt>
      <trkpt lat="43.71552" lon="2.10931">
        <ele>306.4</ele>
        <time>2023-02-26T13:38:41+01:00</time>
      </trkpt>
      <trkpt lat="43.7153" lon="2.1093">
        <ele>304.5</ele>
        <time>2023-02-26T13:38:58+01:00</time>
      </trkpt>
      <trkpt lat="43.71501" lon="2.10931">
        <ele>301.6</ele>
        <time>2023-02-26T13:39:17+01:00</time>
      </trkpt>
      <trkpt lat="43.71484" lon="2.10933">
        <ele>299.5</ele>
        <time>2023-02-26T13:39:32+01:00</time>
      </trkpt>
      <trkpt lat="43.71466" lon="2.10942">
        <ele>298.7</ele>
        <time>2023-02-26T13:39:49+01:00</time>
      </trkpt>
      <trkpt lat="43.71455" lon="2.10945">
        <ele>297.5</ele>
      </trkpt>
      <trkpt lat="43.71441" lon="2.10948">
        <ele>296.4</ele>
        <time>2023-02-26T13:40:08+01:00</time>
      </trkpt>
      <trkpt lat="43.71414" lon="2.10959">
        <ele>297.1</ele>
        <time>2023-02-26T13:40:27+01:00</time>
      </trkpt>
      <trkpt lat="43.71393" lon="2.10958">
        <ele>297.4</ele>
        <time>2023-02-26T13:40:44+01:00</time>
      </trkpt>
      <trkpt lat="43.71379" lon="2.10946">
        <ele>297.6</ele>
        <time>2023-02-26T13:41:02+01:00</time>
      </trkpt>
      <trkpt lat="43.71374" lon="2.10942">
        <ele>298.1</ele>
      </trkpt>
      <trkpt lat="43.71368" lon="2.10931">
        <ele>298.7</ele>
      </trkpt>
      <trkpt lat="43.71366" lon="2.10917">
        <ele>298</ele>
        <time>2023-02-26T13:41:20+01:00</time>
      </trkpt>
      <trkpt lat="43.71362" lon="2.10884">
        <ele>300.8</ele>
        <time>2023-02-26T13:41:36+01:00</time>
      </trkpt>
      <trkpt lat="43.71358" lon="2.1085">
        <ele>300.1</ele>
        <time>2023-02-26T13:41:55+01:00</time>
      </trkpt>
      <trkpt lat="43.71353" lon="2.10825">
        <ele>298.2</ele>
      </trkpt>
      <trkpt lat="43.71354" lon="2.10814">
        <ele>298.3</ele>
      </trkpt>
      <trkpt lat="43.71354" lon="2.10803">
        <ele>298.1</ele>
        <time>2023-02-26T13:42:14+01:00</time>
      </trkpt>
      <trkpt lat="43.71355" lon="2.10782">
        <ele>297.9</ele>
        <time>2023-02-26T13:42:39+01:00</time>
      </trkpt>
      <trkpt lat="43.71355" lon="2.10752">
        <ele>295</ele>
        <time>2023-02-26T13:42:53+01:00</time>
      </trkpt>
      <trkpt lat="43.71357" lon="2.10719">
        <ele>296.1</ele>
        <time>2023-02-26T13:43:18+01:00</time>
      </trkpt>
      <trkpt lat="43.71357" lon="2.10689">
        <ele>295</ele>
        <time>2023-02-26T13:43:39+01:00</time>
      </trkpt>
      <trkpt lat="43.7135" lon="2.1066">
        <ele>293.4</ele>
        <time>2023-02-26T13:44:09+01:00</time>
      </trkpt>
      <trkpt lat="43.71347" lon="2.10646">
        <ele>293.1</ele>
      </trkpt>
      <trkpt lat="43.71347" lon="2.10629">
        <ele>292.8</ele>
        <time>2023-02-26T13:44:21+01:00</time>
      </trkpt>
      <trkpt lat="43.71341" lon="2.10598">
        <ele>290</ele>
        <time>2023-02-26T13:44:37+01:00</time>
      </trkpt>
      <trkpt lat="43.7133" lon="2.10571">
        <ele>289</ele>
        <time>2023-02-26T13:44:56+01:00</time>
      </trkpt>
      <trkpt lat="43.71306" lon="2.10569">
        <ele>289</ele>
        <time>2023-02-26T13:45:15+01:00</time>
      </trkpt>
      <trkpt lat="43.71283" lon="2.10578">
        <ele>285</ele>
        <time>2023-02-26T13:45:35+01:00</time>
      </trkpt>
      <trkpt lat="43.71272" lon="2.10605">
        <ele>280</ele>
        <time>2023-02-26T13:45:48+01:00</time>
      </trkpt>
      <trkpt lat="43.71279" lon="2.10635">
        <ele>280</ele>
        <time>2023-02-26T13:46:40+01:00</time>
      </trkpt>
      <trkpt lat="43.71258" lon="2.1065">
        <ele>276</ele>
        <time>2023-02-26T13:47:28+01:00</time>
      </trkpt>
      <trkpt lat="43.71236" lon="2.10658">
        <ele>274</ele>
        <time>2023-02-26T13:47:48+01:00</time>
      </trkpt>
      <trkpt lat="43.71214" lon="2.10671">
        <ele>275</ele>
        <time>2023-02-26T13:48:26+01:00</time>
      </trkpt>
      <trkpt lat="43.71195" lon="2.10649">
        <ele>275</ele>
        <time>2023-02-26T13:48:43+01:00</time>
      </trkpt>
      <trkpt lat="43.71171" lon="2.10647">
        <ele>277</ele>
        <time>2023-02-26T13:49:05+01:00</time>
      </trkpt>
      <trkpt lat="43.71152" lon="2.10653">
        <ele>275.8</ele>
        <time>2023-02-26T13:49:59+01:00</time>
      </trkpt>
      <trkpt lat="43.71167" lon="2.10638">
        <ele>273.9</ele>
      </trkpt>
      <trkpt lat="43.71174" lon="2.10597">
        <ele>270.7</ele>
      </trkpt>
      <trkpt lat="43.71178" lon="2.10555">
        <ele>268</ele>
        <time>2023-02-26T13:50:26+01:00</time>
      </trkpt>
      <trkpt lat="43.71186" lon="2.10487">
        <ele>263.1</ele>
        <time>2023-02-26T13:50:56+01:00</time>
      </trkpt>
      <trkpt lat="43.71191" lon="2.10452">
        <ele>261.4</ele>
        <time>2023-02-26T13:51:22+01:00</time>
      </trkpt>
      <trkpt lat="43.71191" lon="2.10443">
        <ele>261.1</ele>
        <time>2023-02-26T13:51:49+01:00</time>
      </trkpt>
      <trkpt lat="43.71204" lon="2.10343">
        <ele>265</ele>
      </trkpt>
      <trkpt lat="43.71202" lon="2.10327">
        <ele>265.6</ele>
      </trkpt>
      <trkpt lat="43.71195" lon="2.10317">
        <ele>265.4</ele>
      </trkpt>
      <trkpt lat="43.71162" lon="2.10354">
        <ele>265.5</ele>
        <time>2023-02-26T13:52:16+01:00</time>
      </trkpt>
      <trkpt lat="43.71147" lon="2.10369">
        <ele>265.4</ele>
        <time>2023-02-26T13:52:44+01:00</time>
      </trkpt>
      <trkpt lat="43.71134" lon="2.10382">
        <ele>265.8</ele>
      </trkpt>
      <trkpt lat="43.71122" lon="2.10397">
        <ele>266.2</ele>
        <time>2023-02-26T13:53:10+01:00</time>
      </trkpt>
      <trkpt lat="43.71105" lon="2.10413">
        <ele>266.9</ele>
        <time>2023-02-26T13:53:35+01:00</time>
      </trkpt>
      <trkpt lat="43.71096" lon="2.10423">
        <ele>267</ele>
        <time>2023-02-26T13:53:56+01:00</time>
      </trkpt>
      <trkpt lat="43.71083" lon="2.10436">
        <ele>267.7</ele>
        <time>2023-02-26T13:54:20+01:00</time>
      </trkpt>
      <trkpt lat="43.71057" lon="2.10461">
        <ele>268.9</ele>
        <time>2023-02-26T13:54:38+01:00</time>
      </trkpt>
      <trkpt lat="43.71025" lon="2.10496">
        <ele>271.1</ele>
        <time>2023-02-26T13:55:00+01:00</time>
      </trkpt>
      <trkpt lat="43.70981" lon="2.10544">
        <ele>275.7</ele>
        <time>2023-02-26T14:00:27+01:00</time>
      </trkpt>
      <trkpt lat="43.70957" lon="2.10567">
        <ele>277.2</ele>
      </trkpt>
      <trkpt lat="43.70951" lon="2.10573">
        <ele>277.7</ele>
        <time>2023-02-26T14:00:41+01:00</time>
      </trkpt>
      <trkpt lat="43.70938" lon="2.10587">
        <ele>278.2</ele>
        <time>2023-02-26T14:01:03+01:00</time>
      </trkpt>
      <trkpt lat="43.7092" lon="2.10606">
        <ele>279.5</ele>
        <time>2023-02-26T14:01:25+01:00</time>
      </trkpt>
      <trkpt lat="43.70894" lon="2.10633">
        <ele>282.7</ele>
        <time>2023-02-26T14:01:46+01:00</time>
      </trkpt>
      <trkpt lat="43.7087" lon="2.10661">
        <ele>286.1</ele>
        <time>2023-02-26T14:02:08+01:00</time>
      </trkpt>
      <trkpt lat="43.70862" lon="2.1067">
        <ele>287.6</ele>
        <time>2023-02-26T14:02:28+01:00</time>
      </trkpt>
      <trkpt lat="43.70854" lon="2.10676">
        <ele>287.7</ele>
        <time>2023-02-26T14:02:49+01:00</time>
      </trkpt>
      <trkpt lat="43.70849" lon="2.10681">
        <ele>287.9</ele>
        <time>2023-02-26T14:03:09+01:00</time>
      </trkpt>
      <trkpt lat="43.70845" lon="2.10686">
        <ele>288.1</ele>
      </trkpt>
      <trkpt lat="43.70843" lon="2.10688">
        <ele>288.1</ele>
        <time>2023-02-26T14:03:29+01:00</time>
      </trkpt>
      <trkpt lat="43.70839" lon="2.10681">
        <ele>288.6</ele>
        <time>2023-02-26T14:03:49+01:00</time>
      </trkpt>
      <trkpt lat="43.70835" lon="2.10674">
        <ele>288.9</ele>
      </trkpt>
      <trkpt lat="43.70832" lon="2.10664">
        <ele>289.3</ele>
        <time>2023-02-26T14:04:06+01:00</time>
      </trkpt>
      <trkpt lat="43.70824" lon="2.1064">
        <ele>290.1</ele>
        <time>2023-02-26T14:04:22+01:00</time>
      </trkpt>
      <trkpt lat="43.70814" lon="2.10611">
        <ele>290.8</ele>
        <time>2023-02-26T14:04:41+01:00</time>
      </trkpt>
      <trkpt lat="43.70809" lon="2.10583">
        <ele>291.5</ele>
        <time>2023-02-26T14:05:00+01:00</time>
      </trkpt>
      <trkpt lat="43.70811" lon="2.10555">
        <ele>291.2</ele>
        <time>2023-02-26T14:05:18+01:00</time>
      </trkpt>
      <trkpt lat="43.70815" lon="2.10524">
        <ele>289.4</ele>
        <time>2023-02-26T14:05:37+01:00</time>
      </trkpt>
      <trkpt lat="43.70821" lon="2.1049">
        <ele>287.8</ele>
        <time>2023-02-26T14:05:58+01:00</time>
      </trkpt>
      <trkpt lat="43.70825" lon="2.10456">
        <ele>287.9</ele>
        <time>2023-02-26T14:06:16+01:00</time>
      </trkpt>
      <trkpt lat="43.70829" lon="2.10426">
        <ele>288.2</ele>
        <time>2023-02-26T14:06:37+01:00</time>
      </trkpt>
      <trkpt lat="43.70833" lon="2.10395">
        <ele>287</ele>
        <time>2023-02-26T14:06:52+01:00</time>
      </trkpt>
      <trkpt lat="43.70838" lon="2.10363">
        <ele>286</ele>
        <time>2023-02-26T14:07:11+01:00</time>
      </trkpt>
      <trkpt lat="43.70829" lon="2.1036">
        <ele>287.7</ele>
        <time>2023-02-26T14:07:30+01:00</time>
      </trkpt>
      <trkpt lat="43.70801" lon="2.1032">
        <ele>289.9</ele>
        <time>2023-02-26T14:07:52+01:00</time>
      </trkpt>
      <trkpt lat="43.70783" lon="2.10289">
        <ele>290.8</ele>
        <time>2023-02-26T14:08:15+01:00</time>
      </trkpt>
      <trkpt lat="43.70766" lon="2.10254">
        <ele>292.7</ele>
        <time>2023-02-26T14:08:40+01:00</time>
      </trkpt>
      <trkpt lat="43.70751" lon="2.10224">
        <ele>294.8</ele>
        <time>2023-02-26T14:08:59+01:00</time>
      </trkpt>
      <trkpt lat="43.70741" lon="2.10205">
        <ele>295.9</ele>
        <time>2023-02-26T14:09:18+01:00</time>
      </trkpt>
      <trkpt lat="43.70729" lon="2.10196">
        <ele>297.1</ele>
        <time>2023-02-26T14:09:35+01:00</time>
      </trkpt>
      <trkpt lat="43.70704" lon="2.10191">
        <ele>299.6</ele>
        <time>2023-02-26T14:09:52+01:00</time>
      </trkpt>
      <trkpt lat="43.70688" lon="2.10189">
        <ele>300.7</ele>
        <time>2023-02-26T14:10:11+01:00</time>
      </trkpt>
      <trkpt lat="43.70667" lon="2.1019">
        <ele>302.3</ele>
        <time>2023-02-26T14:10:30+01:00</time>
      </trkpt>
      <trkpt lat="43.7065" lon="2.10195">
        <ele>303.8</ele>
        <time>2023-02-26T14:10:49+01:00</time>
      </trkpt>
      <trkpt lat="43.70636" lon="2.10203">
        <ele>305.9</ele>
        <time>2023-02-26T14:11:01+01:00</time>
      </trkpt>
      <trkpt lat="43.70624" lon="2.10211">
        <ele>308</ele>
      </trkpt>
      <trkpt lat="43.70614" lon="2.10197">
        <ele>301</ele>
        <time>2023-02-26T14:11:26+01:00</time>
      </trkpt>
      <trkpt lat="43.706" lon="2.10196">
        <ele>306.3</ele>
      </trkpt>
      <trkpt lat="43.70593" lon="2.10203">
        <ele>306.8</ele>
      </trkpt>
      <trkpt lat="43.70591" lon="2.10209">
        <ele>307.4</ele>
        <time>2023-02-26T14:11:47+01:00</time>
      </trkpt>
      <trkpt lat="43.70566" lon="2.10186">
        <ele>303.3</ele>
      </trkpt>
      <trkpt lat="43.70566" lon="2.10185">
        <ele>303.1</ele>
      </trkpt>
      <trkpt lat="43.70564" lon="2.10185">
        <ele>303.1</ele>
      </trkpt>
      <trkpt lat="43.70562" lon="2.10183">
        <ele>302.8</ele>
        <time>2023-02-26T14:12:07+01:00</time>
      </trkpt>
      <trkpt lat="43.70558" lon="2.1018">
        <ele>302.5</ele>
        <time>2023-02-26T14:12:46+01:00</time>
      </trkpt>
      <trkpt lat="43.7055" lon="2.10174">
        <ele>301.6</ele>
        <time>2023-02-26T14:13:06+01:00</time>
      </trkpt>
      <trkpt lat="43.70542" lon="2.10169">
        <ele>300.7</ele>
        <time>2023-02-26T14:13:25+01:00</time>
      </trkpt>
      <trkpt lat="43.70526" lon="2.10155">
        <ele>298.3</ele>
        <time>2023-02-26T14:13:44+01:00</time>
      </trkpt>
      <trkpt lat="43.70525" lon="2.1015">
        <ele>297.4</ele>
      </trkpt>
      <trkpt lat="43.70532" lon="2.10119">
        <ele>295.1</ele>
        <time>2023-02-26T14:14:03+01:00</time>
      </trkpt>
      <trkpt lat="43.7054" lon="2.10089">
        <ele>293.6</ele>
        <time>2023-02-26T14:14:21+01:00</time>
      </trkpt>
      <trkpt lat="43.70553" lon="2.10041">
        <ele>292.4</ele>
        <time>2023-02-26T14:14:39+01:00</time>
      </trkpt>
      <trkpt lat="43.70568" lon="2.10023">
        <ele>291.6</ele>
        <time>2023-02-26T14:14:58+01:00</time>
      </trkpt>
      <trkpt lat="43.70544" lon="2.10022">
        <ele>289.1</ele>
        <time>2023-02-26T14:15:19+01:00</time>
      </trkpt>
      <trkpt lat="43.70533" lon="2.1003">
        <ele>287.2</ele>
        <time>2023-02-26T14:15:37+01:00</time>
      </trkpt>
      <trkpt lat="43.70518" lon="2.10056">
        <ele>286.9</ele>
        <time>2023-02-26T14:15:55+01:00</time>
      </trkpt>
      <trkpt lat="43.70508" lon="2.10073">
        <ele>286.2</ele>
        <time>2023-02-26T14:16:15+01:00</time>
      </trkpt>
      <trkpt lat="43.70502" lon="2.10085">
        <ele>285.6</ele>
      </trkpt>
      <trkpt lat="43.70491" lon="2.10106">
        <ele>285.2</ele>
        <time>2023-02-26T14:16:34+01:00</time>
      </trkpt>
      <trkpt lat="43.70475" lon="2.10131">
        <ele>284.8</ele>
        <time>2023-02-26T14:16:51+01:00</time>
      </trkpt>
      <trkpt lat="43.70458" lon="2.10159">
        <ele>286.1</ele>
        <time>2023-02-26T14:17:12+01:00</time>
      </trkpt>
      <trkpt lat="43.70442" lon="2.10184">
        <ele>287</ele>
        <time>2023-02-26T14:17:30+01:00</time>
      </trkpt>
      <trkpt lat="43.7043" lon="2.10191">
        <ele>286.2</ele>
      </trkpt>
      <trkpt lat="43.70421" lon="2.10197">
        <ele>285.7</ele>
        <time>2023-02-26T14:17:47+01:00</time>
        <extensions>
          <visugpx:TrkExtension xmlns:visugpx="https://www.visugpx.com/editgpx/">
            <visugpx:etape>1</visugpx:etape>
            </visugpx:TrkExtension>
        </extensions>
      </trkpt>
      <trkpt lat="43.70414" lon="2.10205">
        <ele>286</ele>
      </trkpt>
      <trkpt lat="43.70399" lon="2.1021">
        <ele>285.6</ele>
        <time>2023-02-26T14:18:07+01:00</time>
      </trkpt>
      <trkpt lat="43.70385" lon="2.1022">
        <ele>285.1</ele>
      </trkpt>
      <trkpt lat="43.7037" lon="2.10233">
        <ele>282.2</ele>
        <time>2023-02-26T14:18:26+01:00</time>
      </trkpt>
      <trkpt lat="43.70364" lon="2.10241">
        <ele>281.3</ele>
        <time>2023-02-26T14:18:43+01:00</time>
      </trkpt>
      <trkpt lat="43.70358" lon="2.10247">
        <ele>279.7</ele>
      </trkpt>
      <trkpt lat="43.70357" lon="2.10263">
        <ele>279.5</ele>
      </trkpt>
      <trkpt lat="43.70356" lon="2.10281">
        <ele>279.4</ele>
        <time>2023-02-26T14:19:23+01:00</time>
      </trkpt>
      <trkpt lat="43.70352" lon="2.10291">
        <ele>279.1</ele>
      </trkpt>
      <trkpt lat="43.70344" lon="2.10297">
        <ele>277.9</ele>
        <time>2023-02-26T14:19:43+01:00</time>
      </trkpt>
      <trkpt lat="43.70332" lon="2.10298">
        <ele>275.4</ele>
        <time>2023-02-26T14:20:04+01:00</time>
      </trkpt>
      <trkpt lat="43.7032" lon="2.10304">
        <ele>274.2</ele>
        <time>2023-02-26T14:20:22+01:00</time>
      </trkpt>
      <trkpt lat="43.70307" lon="2.10314">
        <ele>274.1</ele>
      </trkpt>
      <trkpt lat="43.70289" lon="2.1032">
        <ele>273</ele>
        <time>2023-02-26T14:20:42+01:00</time>
      </trkpt>
      <trkpt lat="43.70277" lon="2.10329">
        <ele>272.9</ele>
      </trkpt>
      <trkpt lat="43.70259" lon="2.10356">
        <ele>271.9</ele>
        <time>2023-02-26T14:21:02+01:00</time>
      </trkpt>
      <trkpt lat="43.70238" lon="2.10389">
        <ele>269.1</ele>
        <time>2023-02-26T14:21:19+01:00</time>
      </trkpt>
      <trkpt lat="43.70235" lon="2.10395">
        <ele>268.2</ele>
      </trkpt>
      <trkpt lat="43.70231" lon="2.10394">
        <ele>267</ele>
      </trkpt>
      <trkpt lat="43.70227" lon="2.1039">
        <ele>265.4</ele>
        <time>2023-02-26T14:21:42+01:00</time>
      </trkpt>
      <trkpt lat="43.70201" lon="2.10375">
        <ele>258.1</ele>
        <time>2023-02-26T14:22:01+01:00</time>
      </trkpt>
      <trkpt lat="43.70208" lon="2.10354">
        <ele>259</ele>
        <time>2023-02-26T14:23:28+01:00</time>
      </trkpt>
      <trkpt lat="43.70226" lon="2.10311">
        <ele>259.2</ele>
      </trkpt>
      <trkpt lat="43.70228" lon="2.10308">
        <ele>259.1</ele>
        <time>2023-02-26T14:23:52+01:00</time>
      </trkpt>
      <trkpt lat="43.70237" lon="2.10285">
        <ele>258.8</ele>
        <time>2023-02-26T14:24:06+01:00</time>
      </trkpt>
      <trkpt lat="43.70253" lon="2.10256">
        <ele>262</ele>
        <time>2023-02-26T14:24:23+01:00</time>
      </trkpt>
      <trkpt lat="43.70268" lon="2.10226">
        <ele>260</ele>
        <time>2023-02-26T14:24:41+01:00</time>
      </trkpt>
      <trkpt lat="43.70269" lon="2.10214">
        <ele>257.7</ele>
      </trkpt>
      <trkpt lat="43.70266" lon="2.10202">
        <ele>257</ele>
        <time>2023-02-26T14:25:01+01:00</time>
      </trkpt>
      <trkpt lat="43.70252" lon="2.10177">
        <ele>254.6</ele>
        <time>2023-02-26T14:25:18+01:00</time>
      </trkpt>
      <trkpt lat="43.70236" lon="2.10147">
        <ele>253</ele>
        <time>2023-02-26T14:25:38+01:00</time>
      </trkpt>
      <trkpt lat="43.70219" lon="2.10114">
        <ele>252.7</ele>
        <time>2023-02-26T14:25:54+01:00</time>
      </trkpt>
      <trkpt lat="43.70214" lon="2.10106">
        <ele>252.5</ele>
      </trkpt>
      <trkpt lat="43.70208" lon="2.10106">
        <ele>252.2</ele>
        <time>2023-02-26T14:26:13+01:00</time>
      </trkpt>
      <trkpt lat="43.70186" lon="2.10127">
        <ele>250.8</ele>
        <time>2023-02-26T14:26:29+01:00</time>
      </trkpt>
      <trkpt lat="43.7017" lon="2.10143">
        <ele>250</ele>
      </trkpt>
      <trkpt lat="43.70154" lon="2.10155">
        <ele>248.9</ele>
        <time>2023-02-26T14:26:47+01:00</time>
      </trkpt>
      <trkpt lat="43.70142" lon="2.10155">
        <ele>248.3</ele>
      </trkpt>
      <trkpt lat="43.70129" lon="2.10154">
        <ele>248</ele>
        <time>2023-02-26T14:27:05+01:00</time>
      </trkpt>
      <trkpt lat="43.70117" lon="2.10157">
        <ele>247.3</ele>
        <time>2023-02-26T14:27:21+01:00</time>
      </trkpt>
      <trkpt lat="43.70097" lon="2.10165">
        <ele>247</ele>
        <time>2023-02-26T14:27:39+01:00</time>
      </trkpt>
      <trkpt lat="43.70054" lon="2.10194">
        <ele>245</ele>
        <time>2023-02-26T14:28:16+01:00</time>
      </trkpt>
      <trkpt lat="43.70033" lon="2.10211">
        <ele>244.4</ele>
        <time>2023-02-26T14:28:38+01:00</time>
      </trkpt>
      <trkpt lat="43.70012" lon="2.10228">
        <ele>245.6</ele>
        <time>2023-02-26T14:29:03+01:00</time>
      </trkpt>
      <trkpt lat="43.69987" lon="2.10248">
        <ele>248.4</ele>
        <time>2023-02-26T14:29:22+01:00</time>
      </trkpt>
      <trkpt lat="43.69968" lon="2.10263">
        <ele>250.9</ele>
        <time>2023-02-26T14:29:38+01:00</time>
      </trkpt>
      <trkpt lat="43.69948" lon="2.10279">
        <ele>253.6</ele>
        <time>2023-02-26T14:29:54+01:00</time>
      </trkpt>
      <trkpt lat="43.69932" lon="2.10292">
        <ele>254.7</ele>
        <time>2023-02-26T14:30:14+01:00</time>
      </trkpt>
      <trkpt lat="43.69913" lon="2.10308">
        <ele>255.8</ele>
        <time>2023-02-26T14:30:37+01:00</time>
      </trkpt>
      <trkpt lat="43.6991" lon="2.1031">
        <ele>255.5</ele>
      </trkpt>
      <trkpt lat="43.699" lon="2.10318">
        <ele>254.8</ele>
      </trkpt>
      <trkpt lat="43.6989" lon="2.10327">
        <ele>254.1</ele>
      </trkpt>
      <trkpt lat="43.69882" lon="2.10329">
        <ele>253.6</ele>
        <time>2023-02-26T14:30:55+01:00</time>
      </trkpt>
      <trkpt lat="43.69872" lon="2.10328">
        <ele>253</ele>
      </trkpt>
      <trkpt lat="43.69868" lon="2.10344">
        <ele>252.1</ele>
        <time>2023-02-26T14:31:12+01:00</time>
      </trkpt>
      <trkpt lat="43.69855" lon="2.10372">
        <ele>250.2</ele>
        <time>2023-02-26T14:31:31+01:00</time>
      </trkpt>
      <trkpt lat="43.69839" lon="2.10393">
        <ele>249.6</ele>
        <time>2023-02-26T14:31:49+01:00</time>
      </trkpt>
      <trkpt lat="43.69822" lon="2.10418">
        <ele>249</ele>
        <time>2023-02-26T14:32:05+01:00</time>
      </trkpt>
      <trkpt lat="43.69807" lon="2.10441">
        <ele>249</ele>
        <time>2023-02-26T14:32:23+01:00</time>
      </trkpt>
      <trkpt lat="43.69792" lon="2.10464">
        <ele>248.1</ele>
        <time>2023-02-26T14:32:42+01:00</time>
      </trkpt>
      <trkpt lat="43.69776" lon="2.10487">
        <ele>246.9</ele>
        <time>2023-02-26T14:33:01+01:00</time>
      </trkpt>
      <trkpt lat="43.69761" lon="2.10507">
        <ele>245.8</ele>
        <time>2023-02-26T14:33:54+01:00</time>
      </trkpt>
      <trkpt lat="43.69742" lon="2.10525">
        <ele>244.4</ele>
        <time>2023-02-26T14:34:14+01:00</time>
      </trkpt>
      <trkpt lat="43.69723" lon="2.10542">
        <ele>242.5</ele>
        <time>2023-02-26T14:34:33+01:00</time>
      </trkpt>
      <trkpt lat="43.69704" lon="2.10559">
        <ele>241.8</ele>
        <time>2023-02-26T14:34:47+01:00</time>
      </trkpt>
      <trkpt lat="43.69687" lon="2.10575">
        <ele>240.9</ele>
        <time>2023-02-26T14:35:04+01:00</time>
      </trkpt>
      <trkpt lat="43.69675" lon="2.10586">
        <ele>240.5</ele>
        <time>2023-02-26T14:35:25+01:00</time>
      </trkpt>
      <trkpt lat="43.69658" lon="2.10618">
        <ele>239.2</ele>
        <time>2023-02-26T14:35:48+01:00</time>
      </trkpt>
      <trkpt lat="43.69653" lon="2.10625">
        <ele>239</ele>
      </trkpt>
      <trkpt lat="43.69651" lon="2.10629">
        <ele>238.8</ele>
      </trkpt>
      <trkpt lat="43.69638" lon="2.10652">
        <ele>237</ele>
        <time>2023-02-26T14:36:07+01:00</time>
      </trkpt>
      <trkpt lat="43.69624" lon="2.1067">
        <ele>237.8</ele>
        <time>2023-02-26T14:36:27+01:00</time>
      </trkpt>
      <trkpt lat="43.69621" lon="2.10673">
        <ele>237.8</ele>
      </trkpt>
      <trkpt lat="43.696" lon="2.10689">
        <ele>237.7</ele>
        <time>2023-02-26T14:36:49+01:00</time>
      </trkpt>
      <trkpt lat="43.69589" lon="2.10698">
        <ele>237.6</ele>
        <time>2023-02-26T14:37:10+01:00</time>
      </trkpt>
      <trkpt lat="43.69583" lon="2.10702">
        <ele>237.5</ele>
        <time>2023-02-26T14:37:31+01:00</time>
      </trkpt>
      <trkpt lat="43.69576" lon="2.10706">
        <ele>237.3</ele>
      </trkpt>
      <trkpt lat="43.69564" lon="2.10715">
        <ele>237.1</ele>
        <time>2023-02-26T14:37:52+01:00</time>
      </trkpt>
      <trkpt lat="43.69549" lon="2.10726">
        <ele>236.8</ele>
      </trkpt>
      <trkpt lat="43.69525" lon="2.10743">
        <ele>235.5</ele>
        <time>2023-02-26T14:38:14+01:00</time>
      </trkpt>
      <trkpt lat="43.69503" lon="2.10759">
        <ele>234.7</ele>
        <time>2023-02-26T14:38:38+01:00</time>
      </trkpt>
      <trkpt lat="43.69474" lon="2.10778">
        <ele>233</ele>
        <time>2023-02-26T14:38:48+01:00</time>
      </trkpt>
      <trkpt lat="43.69456" lon="2.10793">
        <ele>231.9</ele>
        <time>2023-02-26T14:38:56+01:00</time>
      </trkpt>
      <trkpt lat="43.69436" lon="2.10806">
        <ele>231</ele>
        <time>2023-02-26T14:39:11+01:00</time>
      </trkpt>
      <trkpt lat="43.69415" lon="2.1082">
        <ele>230.4</ele>
        <time>2023-02-26T14:39:28+01:00</time>
      </trkpt>
      <trkpt lat="43.69394" lon="2.10836">
        <ele>229.2</ele>
        <time>2023-02-26T14:39:45+01:00</time>
      </trkpt>
      <trkpt lat="43.69374" lon="2.1085">
        <ele>228.5</ele>
        <time>2023-02-26T14:40:01+01:00</time>
      </trkpt>
      <trkpt lat="43.69353" lon="2.10865">
        <ele>227.7</ele>
        <time>2023-02-26T14:40:19+01:00</time>
      </trkpt>
      <trkpt lat="43.69332" lon="2.1088">
        <ele>226.9</ele>
        <time>2023-02-26T14:40:37+01:00</time>
      </trkpt>
      <trkpt lat="43.69311" lon="2.10896">
        <ele>226.2</ele>
        <time>2023-02-26T14:40:56+01:00</time>
      </trkpt>
      <trkpt lat="43.69294" lon="2.10907">
        <ele>225.6</ele>
        <time>2023-02-26T14:41:16+01:00</time>
      </trkpt>
      <trkpt lat="43.69287" lon="2.10913">
        <ele>225.3</ele>
      </trkpt>
      <trkpt lat="43.69311" lon="2.1096">
        <ele>225.1</ele>
        <time>2023-02-26T14:41:33+01:00</time>
      </trkpt>
      <trkpt lat="43.69324" lon="2.10987">
        <ele>224</ele>
        <time>2023-02-26T14:41:52+01:00</time>
      </trkpt>
      <trkpt lat="43.69337" lon="2.11014">
        <ele>222</ele>
        <time>2023-02-26T14:42:08+01:00</time>
      </trkpt>
      <trkpt lat="43.6935" lon="2.11041">
        <ele>221</ele>
        <time>2023-02-26T14:42:27+01:00</time>
      </trkpt>
      <trkpt lat="43.69361" lon="2.11063">
        <ele>219.7</ele>
        <time>2023-02-26T14:42:43+01:00</time>
      </trkpt>
      <trkpt lat="43.69372" lon="2.11084">
        <ele>219.4</ele>
        <time>2023-02-26T14:43:02+01:00</time>
      </trkpt>
      <trkpt lat="43.69387" lon="2.11119">
        <ele>219.9</ele>
        <time>2023-02-26T14:43:21+01:00</time>
      </trkpt>
      <trkpt lat="43.69391" lon="2.11133">
        <ele>220.1</ele>
      </trkpt>
      <trkpt lat="43.69392" lon="2.11146">
        <ele>220.4</ele>
        <time>2023-02-26T14:43:43+01:00</time>
      </trkpt>
      <trkpt lat="43.69393" lon="2.11175">
        <ele>221.2</ele>
        <time>2023-02-26T14:45:07+01:00</time>
      </trkpt>
      <trkpt lat="43.69394" lon="2.11197">
        <ele>221.6</ele>
        <time>2023-02-26T14:45:26+01:00</time>
      </trkpt>
      <trkpt lat="43.69395" lon="2.11219">
        <ele>222.5</ele>
        <time>2023-02-26T14:45:47+01:00</time>
      </trkpt>
      <trkpt lat="43.69395" lon="2.11248">
        <ele>223.4</ele>
        <time>2023-02-26T14:46:09+01:00</time>
      </trkpt>
      <trkpt lat="43.69397" lon="2.11276">
        <ele>224.5</ele>
        <time>2023-02-26T14:46:26+01:00</time>
      </trkpt>
      <trkpt lat="43.69397" lon="2.113">
        <ele>225.2</ele>
      </trkpt>
      <trkpt lat="43.69398" lon="2.11334">
        <ele>226.3</ele>
        <time>2023-02-26T14:46:45+01:00</time>
      </trkpt>
      <trkpt lat="43.69397" lon="2.1137">
        <ele>228</ele>
        <time>2023-02-26T14:47:04+01:00</time>
      </trkpt>
      <trkpt lat="43.69395" lon="2.11402">
        <ele>228.6</ele>
        <time>2023-02-26T14:47:23+01:00</time>
      </trkpt>
      <trkpt lat="43.69394" lon="2.11427">
        <ele>229.9</ele>
        <time>2023-02-26T14:47:41+01:00</time>
      </trkpt>
      <trkpt lat="43.69393" lon="2.11466">
        <ele>233</ele>
        <time>2023-02-26T14:48:01+01:00</time>
      </trkpt>
      <trkpt lat="43.69393" lon="2.11467">
        <ele>232.1</ele>
      </trkpt>
      <trkpt lat="43.6939" lon="2.11498">
        <ele>234</ele>
        <time>2023-02-26T14:48:21+01:00</time>
      </trkpt>
      <trkpt lat="43.69388" lon="2.11527">
        <ele>235.9</ele>
        <time>2023-02-26T14:48:43+01:00</time>
      </trkpt>
      <trkpt lat="43.69386" lon="2.11561">
        <ele>239</ele>
        <time>2023-02-26T14:49:05+01:00</time>
      </trkpt>
      <trkpt lat="43.69384" lon="2.11593">
        <ele>241</ele>
        <time>2023-02-26T14:49:23+01:00</time>
      </trkpt>
      <trkpt lat="43.69382" lon="2.11627">
        <ele>242.9</ele>
        <time>2023-02-26T14:49:43+01:00</time>
      </trkpt>
      <trkpt lat="43.69383" lon="2.11658">
        <ele>243</ele>
        <time>2023-02-26T14:50:06+01:00</time>
      </trkpt>
      <trkpt lat="43.69387" lon="2.11685">
        <ele>246.2</ele>
        <time>2023-02-26T14:50:27+01:00</time>
      </trkpt>
      <trkpt lat="43.69393" lon="2.11703">
        <ele>248.1</ele>
        <time>2023-02-26T14:50:49+01:00</time>
      </trkpt>
      <trkpt lat="43.69397" lon="2.11716">
        <ele>249.1</ele>
      </trkpt>
      <trkpt lat="43.69411" lon="2.11749">
        <ele>250.9</ele>
      </trkpt>
      <trkpt lat="43.69413" lon="2.11743">
        <ele>251.7</ele>
        <time>2023-02-26T14:51:07+01:00</time>
      </trkpt>
      <trkpt lat="43.69407" lon="2.11711">
        <ele>251.8</ele>
        <time>2023-02-26T14:51:44+01:00</time>
      </trkpt>
      <trkpt lat="43.694" lon="2.11668">
        <ele>249.7</ele>
        <time>2023-02-26T14:52:03+01:00</time>
      </trkpt>
      <trkpt lat="43.69401" lon="2.1165">
        <ele>249.4</ele>
        <time>2023-02-26T14:52:27+01:00</time>
      </trkpt>
      <trkpt lat="43.69407" lon="2.11631">
        <ele>249.8</ele>
        <time>2023-02-26T14:52:51+01:00</time>
      </trkpt>
      <trkpt lat="43.69417" lon="2.11608">
        <ele>249.9</ele>
      </trkpt>
      <trkpt lat="43.69423" lon="2.11596">
        <ele>250.5</ele>
        <time>2023-02-26T14:53:13+01:00</time>
      </trkpt>
      <trkpt lat="43.69435" lon="2.11575">
        <ele>250.8</ele>
      </trkpt>
      <trkpt lat="43.69441" lon="2.11565">
        <ele>250.7</ele>
        <time>2023-02-26T14:53:37+01:00</time>
      </trkpt>
      <trkpt lat="43.69455" lon="2.11542">
        <ele>250.6</ele>
        <time>2023-02-26T14:53:53+01:00</time>
      </trkpt>
      <trkpt lat="43.69468" lon="2.11517">
        <ele>250</ele>
        <time>2023-02-26T14:54:03+01:00</time>
      </trkpt>
      <trkpt lat="43.69479" lon="2.11493">
        <ele>249.7</ele>
      </trkpt>
      <trkpt lat="43.69484" lon="2.11486">
        <ele>249.8</ele>
        <time>2023-02-26T14:54:24+01:00</time>
      </trkpt>
      <trkpt lat="43.69492" lon="2.11473">
        <ele>249.6</ele>
        <time>2023-02-26T14:54:45+01:00</time>
      </trkpt>
      <trkpt lat="43.69502" lon="2.11457">
        <ele>249.8</ele>
        <time>2023-02-26T14:55:06+01:00</time>
      </trkpt>
      <trkpt lat="43.69513" lon="2.11442">
        <ele>250.1</ele>
        <time>2023-02-26T14:55:20+01:00</time>
      </trkpt>
      <trkpt lat="43.69535" lon="2.1141">
        <ele>249.6</ele>
      </trkpt>
      <trkpt lat="43.69539" lon="2.11406">
        <ele>249.8</ele>
        <time>2023-02-26T14:55:35+01:00</time>
      </trkpt>
      <trkpt lat="43.69553" lon="2.11385">
        <ele>250</ele>
      </trkpt>
      <trkpt lat="43.69556" lon="2.11381">
        <ele>250.2</ele>
      </trkpt>
      <trkpt lat="43.69564" lon="2.1137">
        <ele>250.6</ele>
        <time>2023-02-26T14:55:54+01:00</time>
      </trkpt>
      <trkpt lat="43.69573" lon="2.11348">
        <ele>250.8</ele>
        <time>2023-02-26T14:56:13+01:00</time>
      </trkpt>
      <trkpt lat="43.69585" lon="2.11302">
        <ele>252</ele>
      </trkpt>
      <trkpt lat="43.69587" lon="2.11296">
        <ele>252</ele>
        <time>2023-02-26T14:56:30+01:00</time>
      </trkpt>
      <trkpt lat="43.69597" lon="2.11282">
        <ele>252.7</ele>
        <time>2023-02-26T14:56:49+01:00</time>
      </trkpt>
      <trkpt lat="43.69608" lon="2.11275">
        <ele>254.2</ele>
      </trkpt>
      <trkpt lat="43.69624" lon="2.11269">
        <ele>255.5</ele>
      </trkpt>
      <trkpt lat="43.69628" lon="2.11267">
        <ele>255.5</ele>
        <time>2023-02-26T14:57:58+01:00</time>
      </trkpt>
      <trkpt lat="43.69649" lon="2.11267">
        <ele>256.6</ele>
        <time>2023-02-26T14:58:19+01:00</time>
      </trkpt>
      <trkpt lat="43.69665" lon="2.11263">
        <ele>256.4</ele>
        <time>2023-02-26T14:58:40+01:00</time>
      </trkpt>
      <trkpt lat="43.69683" lon="2.11258">
        <ele>257.4</ele>
        <time>2023-02-26T14:59:01+01:00</time>
      </trkpt>
      <trkpt lat="43.69703" lon="2.11247">
        <ele>258.6</ele>
        <time>2023-02-26T14:59:19+01:00</time>
      </trkpt>
      <trkpt lat="43.69725" lon="2.11233">
        <ele>259.8</ele>
        <time>2023-02-26T14:59:40+01:00</time>
      </trkpt>
      <trkpt lat="43.6975" lon="2.11216">
        <ele>263.3</ele>
        <time>2023-02-26T15:00:02+01:00</time>
      </trkpt>
      <trkpt lat="43.69771" lon="2.11202">
        <ele>265.7</ele>
        <time>2023-02-26T15:00:26+01:00</time>
      </trkpt>
      <trkpt lat="43.69787" lon="2.1119">
        <ele>267.7</ele>
        <time>2023-02-26T15:00:49+01:00</time>
      </trkpt>
      <trkpt lat="43.69808" lon="2.11173">
        <ele>269.9</ele>
        <time>2023-02-26T15:01:12+01:00</time>
      </trkpt>
      <trkpt lat="43.69838" lon="2.11154">
        <ele>273.3</ele>
        <time>2023-02-26T15:01:35+01:00</time>
      </trkpt>
      <trkpt lat="43.69859" lon="2.11143">
        <ele>274.7</ele>
        <time>2023-02-26T15:02:01+01:00</time>
      </trkpt>
      <trkpt lat="43.69885" lon="2.11132">
        <ele>276</ele>
        <time>2023-02-26T15:02:21+01:00</time>
      </trkpt>
      <trkpt lat="43.69909" lon="2.11128">
        <ele>276.4</ele>
        <time>2023-02-26T15:02:39+01:00</time>
      </trkpt>
      <trkpt lat="43.69939" lon="2.1114">
        <ele>279.4</ele>
        <time>2023-02-26T15:03:00+01:00</time>
      </trkpt>
      <trkpt lat="43.6995" lon="2.11144">
        <ele>279.7</ele>
      </trkpt>
      <trkpt lat="43.69955" lon="2.11146">
        <ele>279.4</ele>
        <time>2023-02-26T15:03:26+01:00</time>
      </trkpt>
      <trkpt lat="43.69962" lon="2.11148">
        <ele>279.3</ele>
      </trkpt>
      <trkpt lat="43.6998" lon="2.11157">
        <ele>278.7</ele>
      </trkpt>
      <trkpt lat="43.69987" lon="2.11164">
        <ele>278.8</ele>
        <time>2023-02-26T15:03:54+01:00</time>
      </trkpt>
      <trkpt lat="43.69994" lon="2.11176">
        <ele>279.6</ele>
        <time>2023-02-26T15:04:17+01:00</time>
      </trkpt>
      <trkpt lat="43.69994" lon="2.11202">
        <ele>283.6</ele>
        <time>2023-02-26T15:04:45+01:00</time>
      </trkpt>
      <trkpt lat="43.69991" lon="2.11232">
        <ele>289.2</ele>
      </trkpt>
      <trkpt lat="43.69986" lon="2.11245">
        <ele>291.9</ele>
        <time>2023-02-26T15:05:12+01:00</time>
      </trkpt>
      <trkpt lat="43.6998" lon="2.11261">
        <ele>296</ele>
        <time>2023-02-26T15:05:46+01:00</time>
      </trkpt>
      <trkpt lat="43.69985" lon="2.11278">
        <ele>296.1</ele>
      </trkpt>
      <trkpt lat="43.69982" lon="2.11297">
        <ele>298.9</ele>
        <time>2023-02-26T15:06:30+01:00</time>
      </trkpt>
      <trkpt lat="43.6998" lon="2.11316">
        <ele>301</ele>
      </trkpt>
      <trkpt lat="43.69982" lon="2.11333">
        <ele>301.6</ele>
        <time>2023-02-26T15:06:53+01:00</time>
      </trkpt>
      <trkpt lat="43.69987" lon="2.11352">
        <ele>302.4</ele>
      </trkpt>
      <trkpt lat="43.69991" lon="2.11367">
        <ele>303.1</ele>
      </trkpt>
      <trkpt lat="43.69996" lon="2.11378">
        <ele>303.3</ele>
        <time>2023-02-26T15:07:17+01:00</time>
      </trkpt>
      <trkpt lat="43.70009" lon="2.11394">
        <ele>303.6</ele>
        <time>2023-02-26T15:07:42+01:00</time>
      </trkpt>
      <trkpt lat="43.70016" lon="2.1141">
        <ele>305.5</ele>
      </trkpt>
      <trkpt lat="43.7002" lon="2.11425">
        <ele>307.7</ele>
        <time>2023-02-26T15:08:05+01:00</time>
      </trkpt>
      <trkpt lat="43.7002" lon="2.11444">
        <ele>310.2</ele>
        <time>2023-02-26T15:08:28+01:00</time>
      </trkpt>
      <trkpt lat="43.70023" lon="2.11457">
        <ele>311.8</ele>
      </trkpt>
      <trkpt lat="43.70028" lon="2.1147">
        <ele>313.6</ele>
        <time>2023-02-26T15:08:55+01:00</time>
      </trkpt>
      <trkpt lat="43.70048" lon="2.11498">
        <ele>316</ele>
        <time>2023-02-26T15:09:28+01:00</time>
      </trkpt>
      <trkpt lat="43.7006" lon="2.11514">
        <ele>317.2</ele>
        <time>2023-02-26T15:09:50+01:00</time>
      </trkpt>
      <trkpt lat="43.70065" lon="2.11521">
        <ele>317.3</ele>
      </trkpt>
      <trkpt lat="43.70082" lon="2.11541">
        <ele>318</ele>
        <time>2023-02-26T15:10:08+01:00</time>
      </trkpt>
      <trkpt lat="43.70102" lon="2.11562">
        <ele>316</ele>
        <time>2023-02-26T15:10:28+01:00</time>
      </trkpt>
      <trkpt lat="43.70118" lon="2.11578">
        <ele>316.4</ele>
        <time>2023-02-26T15:10:49+01:00</time>
      </trkpt>
      <trkpt lat="43.70141" lon="2.11597">
        <ele>313.6</ele>
        <time>2023-02-26T15:11:10+01:00</time>
      </trkpt>
      <trkpt lat="43.70151" lon="2.11607">
        <ele>313</ele>
      </trkpt>
      <trkpt lat="43.70159" lon="2.11623">
        <ele>310.4</ele>
        <time>2023-02-26T15:11:30+01:00</time>
      </trkpt>
      <trkpt lat="43.70169" lon="2.11644">
        <ele>306.3</ele>
        <time>2023-02-26T15:11:48+01:00</time>
      </trkpt>
      <trkpt lat="43.7018" lon="2.11671">
        <ele>300.3</ele>
        <time>2023-02-26T15:12:06+01:00</time>
      </trkpt>
      <trkpt lat="43.70191" lon="2.11701">
        <ele>295.7</ele>
        <time>2023-02-26T15:12:29+01:00</time>
      </trkpt>
      <trkpt lat="43.70193" lon="2.1172">
        <ele>292.1</ele>
      </trkpt>
      <trkpt lat="43.70197" lon="2.11725">
        <ele>291</ele>
      </trkpt>
      <trkpt lat="43.70203" lon="2.11725">
        <ele>289.8</ele>
        <time>2023-02-26T15:12:52+01:00</time>
      </trkpt>
      <trkpt lat="43.7021" lon="2.11725">
        <ele>288.5</ele>
      </trkpt>
      <trkpt lat="43.70213" lon="2.1173">
        <ele>287.1</ele>
      </trkpt>
      <trkpt lat="43.70214" lon="2.11735">
        <ele>285.9</ele>
      </trkpt>
      <trkpt lat="43.70213" lon="2.11743">
        <ele>284.5</ele>
        <time>2023-02-26T15:13:15+01:00</time>
      </trkpt>
      <trkpt lat="43.70212" lon="2.11752">
        <ele>282.6</ele>
        <time>2023-02-26T15:13:39+01:00</time>
      </trkpt>
      <trkpt lat="43.70213" lon="2.11759">
        <ele>281.2</ele>
      </trkpt>
      <trkpt lat="43.70214" lon="2.11784">
        <ele>275.9</ele>
        <time>2023-02-26T15:14:02+01:00</time>
      </trkpt>
      <trkpt lat="43.70213" lon="2.11789">
        <ele>274.9</ele>
      </trkpt>
      <trkpt lat="43.70211" lon="2.11823">
        <ele>268.5</ele>
        <time>2023-02-26T15:14:21+01:00</time>
      </trkpt>
      <trkpt lat="43.70207" lon="2.11847">
        <ele>264.2</ele>
        <time>2023-02-26T15:14:43+01:00</time>
      </trkpt>
      <trkpt lat="43.70206" lon="2.11854">
        <ele>263.2</ele>
      </trkpt>
      <trkpt lat="43.702" lon="2.11883">
        <ele>258.1</ele>
        <time>2023-02-26T15:15:07+01:00</time>
      </trkpt>
      <trkpt lat="43.70199" lon="2.11885">
        <ele>257.7</ele>
      </trkpt>
      <trkpt lat="43.70189" lon="2.11916">
        <ele>251.2</ele>
        <time>2023-02-26T15:15:32+01:00</time>
      </trkpt>
      <trkpt lat="43.70184" lon="2.11939">
        <ele>248</ele>
        <time>2023-02-26T15:15:56+01:00</time>
      </trkpt>
      <trkpt lat="43.70181" lon="2.11945">
        <ele>247</ele>
      </trkpt>
      <trkpt lat="43.7017" lon="2.11971">
        <ele>244</ele>
        <time>2023-02-26T15:16:17+01:00</time>
      </trkpt>
      <trkpt lat="43.70154" lon="2.12001">
        <ele>241</ele>
        <time>2023-02-26T15:16:38+01:00</time>
      </trkpt>
      <trkpt lat="43.70147" lon="2.12014">
        <ele>240</ele>
      </trkpt>
      <trkpt lat="43.70142" lon="2.12029">
        <ele>238.8</ele>
        <time>2023-02-26T15:16:56+01:00</time>
      </trkpt>
      <trkpt lat="43.70139" lon="2.12051">
        <ele>236.5</ele>
        <time>2023-02-26T15:17:26+01:00</time>
      </trkpt>
      <trkpt lat="43.70149" lon="2.12094">
        <ele>232.9</ele>
        <time>2023-02-26T15:17:49+01:00</time>
      </trkpt>
      <trkpt lat="43.70157" lon="2.12124">
        <ele>231</ele>
        <time>2023-02-26T15:18:08+01:00</time>
      </trkpt>
      <trkpt lat="43.70164" lon="2.12158">
        <ele>230</ele>
        <time>2023-02-26T15:18:27+01:00</time>
      </trkpt>
      <trkpt lat="43.70172" lon="2.12189">
        <ele>230.5</ele>
        <time>2023-02-26T15:18:49+01:00</time>
      </trkpt>
      <trkpt lat="43.70178" lon="2.12222">
        <ele>232.8</ele>
        <time>2023-02-26T15:19:14+01:00</time>
      </trkpt>
      <trkpt lat="43.70183" lon="2.12254">
        <ele>236.2</ele>
        <time>2023-02-26T15:19:36+01:00</time>
      </trkpt>
      <trkpt lat="43.70189" lon="2.12285">
        <ele>239.8</ele>
        <time>2023-02-26T15:19:57+01:00</time>
      </trkpt>
      <trkpt lat="43.70198" lon="2.12317">
        <ele>241.3</ele>
        <time>2023-02-26T15:20:14+01:00</time>
      </trkpt>
      <trkpt lat="43.70202" lon="2.12345">
        <ele>241.8</ele>
        <time>2023-02-26T15:20:36+01:00</time>
      </trkpt>
      <trkpt lat="43.70202" lon="2.12355">
        <ele>241.9</ele>
      </trkpt>
      <trkpt lat="43.70204" lon="2.12401">
        <ele>240.5</ele>
        <time>2023-02-26T15:22:07+01:00</time>
      </trkpt>
      <trkpt lat="43.70206" lon="2.12427">
        <ele>238.7</ele>
        <time>2023-02-26T15:22:30+01:00</time>
      </trkpt>
      <trkpt lat="43.70214" lon="2.12448">
        <ele>237.6</ele>
        <time>2023-02-26T15:22:48+01:00</time>
      </trkpt>
      <trkpt lat="43.70222" lon="2.12477">
        <ele>237</ele>
        <time>2023-02-26T15:23:07+01:00</time>
      </trkpt>
      <trkpt lat="43.70224" lon="2.12496">
        <ele>237.1</ele>
        <time>2023-02-26T15:23:26+01:00</time>
      </trkpt>
      <trkpt lat="43.70223" lon="2.12508">
        <ele>237.3</ele>
      </trkpt>
      <trkpt lat="43.70221" lon="2.1254">
        <ele>238.9</ele>
        <time>2023-02-26T15:23:48+01:00</time>
      </trkpt>
      <trkpt lat="43.70219" lon="2.12574">
        <ele>242</ele>
        <time>2023-02-26T15:24:12+01:00</time>
      </trkpt>
      <trkpt lat="43.70216" lon="2.12608">
        <ele>244.6</ele>
        <time>2023-02-26T15:24:36+01:00</time>
      </trkpt>
      <trkpt lat="43.70216" lon="2.1264">
        <ele>245.9</ele>
        <time>2023-02-26T15:24:58+01:00</time>
      </trkpt>
      <trkpt lat="43.70217" lon="2.12654">
        <ele>246.9</ele>
      </trkpt>
      <trkpt lat="43.70235" lon="2.12669">
        <ele>248</ele>
        <time>2023-02-26T15:25:20+01:00</time>
      </trkpt>
      <trkpt lat="43.70253" lon="2.12688">
        <ele>250.7</ele>
        <time>2023-02-26T15:25:43+01:00</time>
      </trkpt>
      <trkpt lat="43.70277" lon="2.1271">
        <ele>252.5</ele>
        <time>2023-02-26T15:26:05+01:00</time>
      </trkpt>
      <trkpt lat="43.70295" lon="2.12717">
        <ele>253.5</ele>
      </trkpt>
      <trkpt lat="43.70296" lon="2.12716">
        <ele>252</ele>
        <time>2023-02-26T15:26:26+01:00</time>
      </trkpt>
      <trkpt lat="43.70305" lon="2.12731">
        <ele>254</ele>
        <time>2023-02-26T15:26:47+01:00</time>
      </trkpt>
      <trkpt lat="43.70306" lon="2.12742">
        <ele>254</ele>
      </trkpt>
      <trkpt lat="43.70305" lon="2.12769">
        <ele>251.9</ele>
        <time>2023-02-26T15:27:05+01:00</time>
      </trkpt>
      <trkpt lat="43.70301" lon="2.12797">
        <ele>249</ele>
        <time>2023-02-26T15:27:28+01:00</time>
      </trkpt>
      <trkpt lat="43.70299" lon="2.1283">
        <ele>246.8</ele>
        <time>2023-02-26T15:27:49+01:00</time>
      </trkpt>
      <trkpt lat="43.70301" lon="2.1286">
        <ele>244.9</ele>
        <time>2023-02-26T15:28:11+01:00</time>
      </trkpt>
      <trkpt lat="43.70305" lon="2.12892">
        <ele>241.7</ele>
        <time>2023-02-26T15:28:33+01:00</time>
      </trkpt>
      <trkpt lat="43.70308" lon="2.12924">
        <ele>238.2</ele>
        <time>2023-02-26T15:28:56+01:00</time>
      </trkpt>
      <trkpt lat="43.70312" lon="2.12956">
        <ele>234.6</ele>
        <time>2023-02-26T15:29:18+01:00</time>
      </trkpt>
      <trkpt lat="43.70316" lon="2.12986">
        <ele>231</ele>
        <time>2023-02-26T15:29:41+01:00</time>
      </trkpt>
      <trkpt lat="43.70323" lon="2.13018">
        <ele>229.6</ele>
        <time>2023-02-26T15:30:28+01:00</time>
      </trkpt>
      <trkpt lat="43.7033" lon="2.1305">
        <ele>229.1</ele>
        <time>2023-02-26T15:30:49+01:00</time>
      </trkpt>
      <trkpt lat="43.70335" lon="2.1308">
        <ele>229.1</ele>
        <time>2023-02-26T15:31:20+01:00</time>
      </trkpt>
      <trkpt lat="43.70339" lon="2.13113">
        <ele>230</ele>
        <time>2023-02-26T15:31:41+01:00</time>
      </trkpt>
      <trkpt lat="43.70344" lon="2.13144">
        <ele>229.7</ele>
        <time>2023-02-26T15:32:03+01:00</time>
      </trkpt>
      <trkpt lat="43.70349" lon="2.13174">
        <ele>235</ele>
        <time>2023-02-26T15:32:32+01:00</time>
      </trkpt>
      <trkpt lat="43.70351" lon="2.13209">
        <ele>235.6</ele>
        <time>2023-02-26T15:32:57+01:00</time>
      </trkpt>
      <trkpt lat="43.70351" lon="2.13228">
        <ele>238.2</ele>
        <time>2023-02-26T15:33:22+01:00</time>
      </trkpt>
      <trkpt lat="43.7035" lon="2.13237">
        <ele>239.5</ele>
      </trkpt>
      <trkpt lat="43.70349" lon="2.13267">
        <ele>243.5</ele>
        <time>2023-02-26T15:33:52+01:00</time>
      </trkpt>
      <trkpt lat="43.70346" lon="2.133">
        <ele>246</ele>
        <time>2023-02-26T15:34:22+01:00</time>
      </trkpt>
      <trkpt lat="43.70346" lon="2.13324">
        <ele>247.9</ele>
        <time>2023-02-26T15:34:49+01:00</time>
      </trkpt>
      <trkpt lat="43.70344" lon="2.13334">
        <ele>248.4</ele>
      </trkpt>
      <trkpt lat="43.70342" lon="2.13367">
        <ele>249.6</ele>
        <time>2023-02-26T15:35:12+01:00</time>
      </trkpt>
      <trkpt lat="43.70343" lon="2.13398">
        <ele>250</ele>
        <time>2023-02-26T15:35:33+01:00</time>
      </trkpt>
      <trkpt lat="43.70346" lon="2.13432">
        <ele>251</ele>
        <time>2023-02-26T15:35:55+01:00</time>
      </trkpt>
      <trkpt lat="43.70351" lon="2.13466">
        <ele>253.1</ele>
        <time>2023-02-26T15:36:20+01:00</time>
      </trkpt>
      <trkpt lat="43.70352" lon="2.13497">
        <ele>254.8</ele>
        <time>2023-02-26T15:36:41+01:00</time>
      </trkpt>
      <trkpt lat="43.70354" lon="2.13516">
        <ele>256.6</ele>
        <time>2023-02-26T15:37:06+01:00</time>
      </trkpt>
      <trkpt lat="43.70374" lon="2.13553">
        <ele>261</ele>
        <time>2023-02-26T15:37:27+01:00</time>
      </trkpt>
      <trkpt lat="43.70388" lon="2.13574">
        <ele>264</ele>
        <time>2023-02-26T15:37:55+01:00</time>
      </trkpt>
      <trkpt lat="43.70413" lon="2.13573">
        <ele>267</ele>
        <time>2023-02-26T15:38:26+01:00</time>
      </trkpt>
      <trkpt lat="43.70413" lon="2.13577">
        <ele>266.7</ele>
      </trkpt>
      <trkpt lat="43.70425" lon="2.13594">
        <ele>270.4</ele>
        <time>2023-02-26T15:38:37+01:00</time>
      </trkpt>
      <trkpt lat="43.70441" lon="2.13604">
        <ele>274.2</ele>
        <time>2023-02-26T15:39:03+01:00</time>
      </trkpt>
      <trkpt lat="43.70467" lon="2.13599">
        <ele>276.3</ele>
        <time>2023-02-26T15:40:01+01:00</time>
      </trkpt>
      <trkpt lat="43.70483" lon="2.13605">
        <ele>277.5</ele>
      </trkpt>
      <trkpt lat="43.70488" lon="2.13617">
        <ele>277</ele>
        <time>2023-02-26T15:40:22+01:00</time>
      </trkpt>
      <trkpt lat="43.70513" lon="2.13641">
        <ele>283.9</ele>
        <time>2023-02-26T15:40:42+01:00</time>
      </trkpt>
      <trkpt lat="43.70522" lon="2.13656">
        <ele>284.9</ele>
        <time>2023-02-26T15:41:07+01:00</time>
      </trkpt>
      <trkpt lat="43.70536" lon="2.13681">
        <ele>286.5</ele>
        <time>2023-02-26T15:41:31+01:00</time>
      </trkpt>
      <trkpt lat="43.7055" lon="2.1371">
        <ele>291</ele>
        <time>2023-02-26T15:41:56+01:00</time>
      </trkpt>
      <trkpt lat="43.70562" lon="2.13735">
        <ele>289.6</ele>
        <time>2023-02-26T15:42:19+01:00</time>
      </trkpt>
      <trkpt lat="43.70576" lon="2.13763">
        <ele>291</ele>
        <time>2023-02-26T15:42:47+01:00</time>
      </trkpt>
      <trkpt lat="43.70602" lon="2.13825">
        <ele>290.3</ele>
      </trkpt>
      <trkpt lat="43.70616" lon="2.13813">
        <ele>288.9</ele>
      </trkpt>
      <trkpt lat="43.70642" lon="2.1381">
        <ele>287.4</ele>
      </trkpt>
      <trkpt lat="43.70679" lon="2.13828">
        <ele>290.6</ele>
      </trkpt>
      <trkpt lat="43.70712" lon="2.13813">
        <ele>293</ele>
      </trkpt>
      <trkpt lat="43.70732" lon="2.13817">
        <ele>294.4</ele>
      </trkpt>
      <trkpt lat="43.70758" lon="2.13797">
        <ele>296.7</ele>
      </trkpt>
      <trkpt lat="43.70761" lon="2.13797">
        <ele>296.8</ele>
      </trkpt>
    </trkseg>
  </trk>
</gpx>